sensor_id;sensor_type;location;lat;lon;timestamp;pressure;altitude;pressure_sealevel;temperature;humidity
52935;BME280;38802;50.198;19.796;2022-12-15T00:02:01;94719.73;;;-2.65;87.56
52935;BME280;38802;50.198;19.796;2022-12-15T00:04:46;94722.70;;;-2.67;87.41
52935;BME280;38802;50.198;19.796;2022-12-15T00:07:32;94733.83;;;-2.68;87.35
52935;BME280;38802;50.198;19.796;2022-12-15T00:10:18;94730.45;;;-2.81;87.03
52935;BME280;38802;50.198;19.796;2022-12-15T00:13:09;94736.14;;;-2.88;86.89
52935;BME280;38802;50.198;19.796;2022-12-15T00:15:56;94738.84;;;-2.91;87.11
52935;BME280;38802;50.198;19.796;2022-12-15T00:18:42;94743.05;;;-2.91;87.17
52935;BME280;38802;50.198;19.796;2022-12-15T00:21:28;94750.85;;;-2.90;86.92
52935;BME280;38802;50.198;19.796;2022-12-15T00:24:14;94752.10;;;-3.01;86.52
52935;BME280;38802;50.198;19.796;2022-12-15T00:26:59;94752.81;;;-3.11;86.82
52935;BME280;38802;50.198;19.796;2022-12-15T00:29:44;94761.95;;;-3.21;86.33
52935;BME280;38802;50.198;19.796;2022-12-15T00:32:29;94769.38;;;-3.26;86.45
52935;BME280;38802;50.198;19.796;2022-12-15T00:35:15;94774.27;;;-3.29;86.50
52935;BME280;38802;50.198;19.796;2022-12-15T00:38:26;94777.13;;;-3.35;86.34
52935;BME280;38802;50.198;19.796;2022-12-15T00:41:14;94789.25;;;-3.39;86.82
52935;BME280;38802;50.198;19.796;2022-12-15T00:43:41;94786.86;;;-3.42;86.46
52935;BME280;38802;50.198;19.796;2022-12-15T00:46:09;94788.34;;;-3.45;86.41
52935;BME280;38802;50.198;19.796;2022-12-15T00:48:55;94790.13;;;-3.46;86.68
52935;BME280;38802;50.198;19.796;2022-12-15T00:51:22;94792.61;;;-3.45;86.75
52935;BME280;38802;50.198;19.796;2022-12-15T00:54:08;94792.56;;;-3.44;86.57
52935;BME280;38802;50.198;19.796;2022-12-15T00:56:54;94796.33;;;-3.44;87.00
52935;BME280;38802;50.198;19.796;2022-12-15T00:59:39;94800.89;;;-3.48;86.46
52935;BME280;38802;50.198;19.796;2022-12-15T01:02:25;94804.89;;;-3.50;87.03
52935;BME280;38802;50.198;19.796;2022-12-15T01:05:10;94806.65;;;-3.51;86.48
52935;BME280;38802;50.198;19.796;2022-12-15T01:07:58;94801.69;;;-3.54;86.62
52935;BME280;38802;50.198;19.796;2022-12-15T01:10:43;94804.35;;;-3.53;86.65
52935;BME280;38802;50.198;19.796;2022-12-15T01:13:29;94799.05;;;-3.52;86.88
52935;BME280;38802;50.198;19.796;2022-12-15T01:16:16;94806.13;;;-3.55;86.65
52935;BME280;38802;50.198;19.796;2022-12-15T01:19:02;94811.96;;;-3.53;86.92
52935;BME280;38802;50.198;19.796;2022-12-15T01:21:47;94813.29;;;-3.49;86.69
52935;BME280;38802;50.198;19.796;2022-12-15T01:24:15;94816.77;;;-3.46;86.96
52935;BME280;38802;50.198;19.796;2022-12-15T01:26:42;94819.30;;;-3.42;86.99
52935;BME280;38802;50.198;19.796;2022-12-15T01:29:08;94819.15;;;-3.39;87.00
52935;BME280;38802;50.198;19.796;2022-12-15T01:31:35;94825.19;;;-3.38;87.13
52935;BME280;38802;50.198;19.796;2022-12-15T01:34:03;94827.14;;;-3.36;86.92
52935;BME280;38802;50.198;19.796;2022-12-15T01:36:30;94826.98;;;-3.37;86.86
52935;BME280;38802;50.198;19.796;2022-12-15T01:38:57;94829.42;;;-3.34;87.31
52935;BME280;38802;50.198;19.796;2022-12-15T01:41:23;94824.13;;;-3.34;86.73
52935;BME280;38802;50.198;19.796;2022-12-15T01:43:50;94819.54;;;-3.34;87.02
52935;BME280;38802;50.198;19.796;2022-12-15T01:46:21;94821.27;;;-3.35;86.79
52935;BME280;38802;50.198;19.796;2022-12-15T01:51:48;94820.40;;;-3.34;87.13
52935;BME280;38802;50.198;19.796;2022-12-15T01:54:21;94824.77;;;-3.33;86.92
52935;BME280;38802;50.198;19.796;2022-12-15T01:56:52;94824.48;;;-3.34;86.86
52935;BME280;38802;50.198;19.796;2022-12-15T01:59:25;94827.31;;;-3.36;86.84
52935;BME280;38802;50.198;19.796;2022-12-15T02:01:52;94826.22;;;-3.38;86.86
52935;BME280;38802;50.198;19.796;2022-12-15T02:04:21;94830.95;;;-3.41;87.11
52935;BME280;38802;50.198;19.796;2022-12-15T02:06:48;94829.70;;;-3.43;87.07
52935;BME280;38802;50.198;19.796;2022-12-15T02:09:16;94834.35;;;-3.44;87.09
52935;BME280;38802;50.198;19.796;2022-12-15T02:12:08;94835.64;;;-3.47;87.14
52935;BME280;38802;50.198;19.796;2022-12-15T02:14:44;94842.36;;;-3.49;87.20
52935;BME280;38802;50.198;19.796;2022-12-15T02:17:15;94844.33;;;-3.48;87.46
52935;BME280;38802;50.198;19.796;2022-12-15T02:22:59;94855.95;;;-3.45;87.11
52935;BME280;38802;50.198;19.796;2022-12-15T02:37:07;94865.34;;;-3.39;87.70
52935;BME280;38802;50.198;19.796;2022-12-15T02:39:35;94872.33;;;-3.37;87.79
52935;BME280;38802;50.198;19.796;2022-12-15T02:42:02;94876.15;;;-3.35;87.78
52935;BME280;38802;50.198;19.796;2022-12-15T02:55:04;94891.85;;;-3.26;87.87
52935;BME280;38802;50.198;19.796;2022-12-15T03:00:21;94899.33;;;-3.27;87.86
52935;BME280;38802;50.198;19.796;2022-12-15T03:02:50;94898.59;;;-3.25;88.02
52935;BME280;38802;50.198;19.796;2022-12-15T03:05:20;94898.86;;;-3.24;87.85
52935;BME280;38802;50.198;19.796;2022-12-15T03:07:49;94898.81;;;-3.23;88.10
52935;BME280;38802;50.198;19.796;2022-12-15T03:10:19;94897.79;;;-3.23;88.04
52935;BME280;38802;50.198;19.796;2022-12-15T03:12:47;94896.09;;;-3.23;88.14
52935;BME280;38802;50.198;19.796;2022-12-15T03:15:16;94897.50;;;-3.24;88.02
52935;BME280;38802;50.198;19.796;2022-12-15T03:17:43;94895.84;;;-3.25;87.86
52935;BME280;38802;50.198;19.796;2022-12-15T03:20:09;94889.51;;;-3.27;87.87
52935;BME280;38802;50.198;19.796;2022-12-15T03:22:38;94886.28;;;-3.28;88.09
52935;BME280;38802;50.198;19.796;2022-12-15T03:25:05;94890.13;;;-3.26;88.15
52935;BME280;38802;50.198;19.796;2022-12-15T03:27:33;94896.12;;;-3.27;88.11
52935;BME280;38802;50.198;19.796;2022-12-15T03:30:00;94898.61;;;-3.26;87.94
52935;BME280;38802;50.198;19.796;2022-12-15T03:32:28;94902.81;;;-3.25;88.27
52935;BME280;38802;50.198;19.796;2022-12-15T03:34:55;94905.55;;;-3.26;88.48
52935;BME280;38802;50.198;19.796;2022-12-15T03:37:22;94910.50;;;-3.26;88.16
52935;BME280;38802;50.198;19.796;2022-12-15T03:39:48;94918.13;;;-3.26;88.34
52935;BME280;38802;50.198;19.796;2022-12-15T03:42:15;94923.92;;;-3.26;88.61
52935;BME280;38802;50.198;19.796;2022-12-15T03:45:02;94927.95;;;-3.25;88.74
52935;BME280;38802;50.198;19.796;2022-12-15T03:47:29;94929.52;;;-3.26;88.68
52935;BME280;38802;50.198;19.796;2022-12-15T03:49:56;94931.23;;;-3.23;88.42
52935;BME280;38802;50.198;19.796;2022-12-15T03:52:23;94929.66;;;-3.22;88.64
52935;BME280;38802;50.198;19.796;2022-12-15T03:54:49;94935.15;;;-3.23;88.72
52935;BME280;38802;50.198;19.796;2022-12-15T03:57:16;94937.29;;;-3.22;88.52
52935;BME280;38802;50.198;19.796;2022-12-15T03:59:43;94938.52;;;-3.19;88.81
52935;BME280;38802;50.198;19.796;2022-12-15T04:02:10;94939.98;;;-3.21;88.67
52935;BME280;38802;50.198;19.796;2022-12-15T04:04:37;94945.86;;;-3.20;88.61
52935;BME280;38802;50.198;19.796;2022-12-15T04:07:04;94948.29;;;-3.17;88.94
52935;BME280;38802;50.198;19.796;2022-12-15T04:09:31;94951.75;;;-3.15;88.62
52935;BME280;38802;50.198;19.796;2022-12-15T04:11:58;94955.06;;;-3.13;88.76
52935;BME280;38802;50.198;19.796;2022-12-15T04:14:25;94953.02;;;-3.13;88.85
52935;BME280;38802;50.198;19.796;2022-12-15T04:16:51;94951.43;;;-3.16;89.01
52935;BME280;38802;50.198;19.796;2022-12-15T04:19:18;94956.40;;;-3.17;89.17
52935;BME280;38802;50.198;19.796;2022-12-15T04:22:04;94964.79;;;-3.18;89.34
52935;BME280;38802;50.198;19.796;2022-12-15T04:24:31;94964.73;;;-3.20;89.01
52935;BME280;38802;50.198;19.796;2022-12-15T04:27:16;94964.73;;;-3.20;89.04
52935;BME280;38802;50.198;19.796;2022-12-15T04:30:02;94970.91;;;-3.21;89.30
52935;BME280;38802;50.198;19.796;2022-12-15T04:32:47;94967.48;;;-3.21;89.23
52935;BME280;38802;50.198;19.796;2022-12-15T04:35:33;94972.57;;;-3.21;89.45
52935;BME280;38802;50.198;19.796;2022-12-15T04:38:20;94976.13;;;-3.20;89.90
52935;BME280;38802;50.198;19.796;2022-12-15T04:41:18;94979.19;;;-3.21;89.38
52935;BME280;38802;50.198;19.796;2022-12-15T04:44:04;94981.89;;;-3.20;89.55
52935;BME280;38802;50.198;19.796;2022-12-15T04:46:50;94985.63;;;-3.24;89.53
52935;BME280;38802;50.198;19.796;2022-12-15T04:49:35;94991.67;;;-3.26;89.63
52935;BME280;38802;50.198;19.796;2022-12-15T04:52:21;94992.45;;;-3.28;89.65
52935;BME280;38802;50.198;19.796;2022-12-15T04:55:06;94999.69;;;-3.30;89.58
52935;BME280;38802;50.198;19.796;2022-12-15T04:57:52;94995.26;;;-3.29;89.61
52935;BME280;38802;50.198;19.796;2022-12-15T05:00:37;95007.29;;;-3.29;89.58
52935;BME280;38802;50.198;19.796;2022-12-15T05:03:23;95006.35;;;-3.30;89.65
52935;BME280;38802;50.198;19.796;2022-12-15T05:06:08;95008.92;;;-3.31;89.92
52935;BME280;38802;50.198;19.796;2022-12-15T05:08:54;95009.70;;;-3.33;89.82
52935;BME280;38802;50.198;19.796;2022-12-15T05:11:39;95011.60;;;-3.34;89.62
52935;BME280;38802;50.198;19.796;2022-12-15T05:14:25;95015.60;;;-3.32;89.74
52935;BME280;38802;50.198;19.796;2022-12-15T05:17:16;95022.19;;;-3.28;89.85
52935;BME280;38802;50.198;19.796;2022-12-15T05:20:08;95021.70;;;-3.25;89.99
52935;BME280;38802;50.198;19.796;2022-12-15T05:22:55;95030.37;;;-3.22;89.87
52935;BME280;38802;50.198;19.796;2022-12-15T05:25:41;95034.29;;;-3.22;89.93
52935;BME280;38802;50.198;19.796;2022-12-15T05:28:27;95042.95;;;-3.22;89.71
52935;BME280;38802;50.198;19.796;2022-12-15T05:31:13;95045.70;;;-3.23;90.01
52935;BME280;38802;50.198;19.796;2022-12-15T05:33:58;95049.73;;;-3.22;89.88
52935;BME280;38802;50.198;19.796;2022-12-15T05:36:32;95053.48;;;-3.22;89.71
52935;BME280;38802;50.198;19.796;2022-12-15T05:38:58;95062.35;;;-3.23;89.58
52935;BME280;38802;50.198;19.796;2022-12-15T05:41:25;95065.30;;;-3.24;89.88
52935;BME280;38802;50.198;19.796;2022-12-15T05:43:52;95068.91;;;-3.25;89.53
52935;BME280;38802;50.198;19.796;2022-12-15T05:46:19;95066.75;;;-3.26;89.96
52935;BME280;38802;50.198;19.796;2022-12-15T05:48:46;95073.95;;;-3.28;90.01
52935;BME280;38802;50.198;19.796;2022-12-15T05:51:13;95080.59;;;-3.31;89.82
52935;BME280;38802;50.198;19.796;2022-12-15T05:53:41;95085.70;;;-3.31;89.85
52935;BME280;38802;50.198;19.796;2022-12-15T05:56:12;95087.70;;;-3.31;89.56
52935;BME280;38802;50.198;19.796;2022-12-15T05:58:41;95098.41;;;-3.31;89.94
52935;BME280;38802;50.198;19.796;2022-12-15T06:01:14;95107.70;;;-3.33;90.03
52935;BME280;38802;50.198;19.796;2022-12-15T06:03:41;95112.56;;;-3.36;89.72
52935;BME280;38802;50.198;19.796;2022-12-15T06:06:10;95102.17;;;-3.35;89.87
52935;BME280;38802;50.198;19.796;2022-12-15T06:08:41;95106.97;;;-3.36;89.67
52935;BME280;38802;50.198;19.796;2022-12-15T06:11:11;95111.02;;;-3.39;90.08
52935;BME280;38802;50.198;19.796;2022-12-15T06:13:39;95115.30;;;-3.40;90.03
52935;BME280;38802;50.198;19.796;2022-12-15T06:16:10;95116.60;;;-3.42;89.89
52935;BME280;38802;50.198;19.796;2022-12-15T06:18:40;95123.20;;;-3.42;89.72
52935;BME280;38802;50.198;19.796;2022-12-15T06:21:11;95133.83;;;-3.44;90.00
52935;BME280;38802;50.198;19.796;2022-12-15T06:23:39;95139.66;;;-3.45;89.95
52935;BME280;38802;50.198;19.796;2022-12-15T06:26:13;95144.84;;;-3.48;89.99
52935;BME280;38802;50.198;19.796;2022-12-15T06:28:41;95146.27;;;-3.50;89.83
52935;BME280;38802;50.198;19.796;2022-12-15T06:31:09;95155.27;;;-3.50;90.17
52935;BME280;38802;50.198;19.796;2022-12-15T06:33:38;95158.48;;;-3.50;89.75
52935;BME280;38802;50.198;19.796;2022-12-15T06:36:07;95164.17;;;-3.48;89.73
52935;BME280;38802;50.198;19.796;2022-12-15T06:38:35;95173.41;;;-3.49;89.87
52935;BME280;38802;50.198;19.796;2022-12-15T06:41:03;95179.88;;;-3.50;90.16
52935;BME280;38802;50.198;19.796;2022-12-15T06:43:31;95186.15;;;-3.49;90.26
52935;BME280;38802;50.198;19.796;2022-12-15T06:46:00;95196.27;;;-3.52;89.97
52935;BME280;38802;50.198;19.796;2022-12-15T06:48:28;95193.94;;;-3.53;89.97
52935;BME280;38802;50.198;19.796;2022-12-15T06:50:55;95195.16;;;-3.53;90.18
52935;BME280;38802;50.198;19.796;2022-12-15T06:53:23;95200.86;;;-3.56;90.01
52935;BME280;38802;50.198;19.796;2022-12-15T06:55:50;95202.77;;;-3.57;89.99
52935;BME280;38802;50.198;19.796;2022-12-15T06:58:17;95215.31;;;-3.56;90.19
52935;BME280;38802;50.198;19.796;2022-12-15T07:00:44;95220.20;;;-3.55;90.03
52935;BME280;38802;50.198;19.796;2022-12-15T07:03:14;95214.64;;;-3.56;90.06
52935;BME280;38802;50.198;19.796;2022-12-15T07:05:43;95210.96;;;-3.57;90.07
52935;BME280;38802;50.198;19.796;2022-12-15T07:08:12;95215.48;;;-3.56;90.02
52935;BME280;38802;50.198;19.796;2022-12-15T07:10:42;95218.29;;;-3.54;89.88
52935;BME280;38802;50.198;19.796;2022-12-15T07:13:10;95223.90;;;-3.55;89.74
52935;BME280;38802;50.198;19.796;2022-12-15T07:15:38;95230.34;;;-3.51;90.01
52935;BME280;38802;50.198;19.796;2022-12-15T07:18:08;95232.94;;;-3.47;90.04
52935;BME280;38802;50.198;19.796;2022-12-15T07:20:35;95233.95;;;-3.43;89.99
52935;BME280;38802;50.198;19.796;2022-12-15T07:23:02;95238.11;;;-3.41;90.07
52935;BME280;38802;50.198;19.796;2022-12-15T07:25:36;95239.16;;;-3.41;89.96
52935;BME280;38802;50.198;19.796;2022-12-15T07:28:03;95246.02;;;-3.43;89.92
52935;BME280;38802;50.198;19.796;2022-12-15T07:30:30;95247.14;;;-3.45;89.73
52935;BME280;38802;50.198;19.796;2022-12-15T07:33:04;95247.02;;;-3.47;89.90
52935;BME280;38802;50.198;19.796;2022-12-15T07:35:31;95252.25;;;-3.45;89.54
52935;BME280;38802;50.198;19.796;2022-12-15T07:37:58;95257.29;;;-3.44;89.98
52935;BME280;38802;50.198;19.796;2022-12-15T07:40:25;95268.40;;;-3.42;89.85
52935;BME280;38802;50.198;19.796;2022-12-15T07:42:52;95272.89;;;-3.40;89.97
52935;BME280;38802;50.198;19.796;2022-12-15T07:45:19;95284.70;;;-3.38;89.90
52935;BME280;38802;50.198;19.796;2022-12-15T07:47:48;95278.66;;;-3.36;89.96
52935;BME280;38802;50.198;19.796;2022-12-15T07:50:17;95289.02;;;-3.32;89.92
52935;BME280;38802;50.198;19.796;2022-12-15T07:52:45;95299.86;;;-3.31;90.16
52935;BME280;38802;50.198;19.796;2022-12-15T07:55:12;95298.59;;;-3.30;89.79
52935;BME280;38802;50.198;19.796;2022-12-15T07:57:38;95299.88;;;-3.28;89.95
52935;BME280;38802;50.198;19.796;2022-12-15T08:00:06;95301.66;;;-3.30;89.85
52935;BME280;38802;50.198;19.796;2022-12-15T08:02:39;95306.12;;;-3.31;89.54
52935;BME280;38802;50.198;19.796;2022-12-15T08:05:07;95303.54;;;-3.30;89.78
52935;BME280;38802;50.198;19.796;2022-12-15T08:07:34;95306.48;;;-3.31;89.83
52935;BME280;38802;50.198;19.796;2022-12-15T08:10:01;95311.92;;;-3.32;89.69
52935;BME280;38802;50.198;19.796;2022-12-15T08:12:28;95315.70;;;-3.33;89.57
52935;BME280;38802;50.198;19.796;2022-12-15T08:14:55;95321.72;;;-3.31;89.50
52935;BME280;38802;50.198;19.796;2022-12-15T08:17:21;95327.34;;;-3.31;89.52
52935;BME280;38802;50.198;19.796;2022-12-15T08:19:48;95333.45;;;-3.31;89.65
52935;BME280;38802;50.198;19.796;2022-12-15T08:22:15;95327.77;;;-3.25;90.02
52935;BME280;38802;50.198;19.796;2022-12-15T08:24:42;95329.73;;;-3.24;89.42
52935;BME280;38802;50.198;19.796;2022-12-15T08:27:08;95336.60;;;-3.21;89.61
52935;BME280;38802;50.198;19.796;2022-12-15T08:29:35;95349.32;;;-3.21;89.46
52935;BME280;38802;50.198;19.796;2022-12-15T08:32:19;95356.36;;;-3.19;89.36
52935;BME280;38802;50.198;19.796;2022-12-15T08:34:46;95365.00;;;-3.18;89.52
52935;BME280;38802;50.198;19.796;2022-12-15T08:37:14;95370.69;;;-3.20;89.43
52935;BME280;38802;50.198;19.796;2022-12-15T08:39:41;95375.83;;;-3.21;89.28
52935;BME280;38802;50.198;19.796;2022-12-15T08:42:08;95383.77;;;-3.24;89.34
52935;BME280;38802;50.198;19.796;2022-12-15T08:44:35;95384.27;;;-3.24;89.25
52935;BME280;38802;50.198;19.796;2022-12-15T08:47:01;95389.71;;;-3.20;89.47
52935;BME280;38802;50.198;19.796;2022-12-15T08:49:28;95388.40;;;-3.17;89.30
52935;BME280;38802;50.198;19.796;2022-12-15T08:51:54;95398.15;;;-3.19;89.15
52935;BME280;38802;50.198;19.796;2022-12-15T08:54:21;95396.93;;;-3.18;89.40
52935;BME280;38802;50.198;19.796;2022-12-15T08:56:48;95392.79;;;-3.16;89.14
52935;BME280;38802;50.198;19.796;2022-12-15T08:59:15;95398.02;;;-3.16;89.03
52935;BME280;38802;50.198;19.796;2022-12-15T09:01:42;95400.19;;;-3.15;89.30
52935;BME280;38802;50.198;19.796;2022-12-15T09:04:09;95398.85;;;-3.11;89.05
52935;BME280;38802;50.198;19.796;2022-12-15T09:06:36;95394.48;;;-3.08;89.20
52935;BME280;38802;50.198;19.796;2022-12-15T09:09:05;95394.28;;;-3.03;89.30
52935;BME280;38802;50.198;19.796;2022-12-15T09:11:33;95396.94;;;-2.97;89.16
52935;BME280;38802;50.198;19.796;2022-12-15T09:14:00;95398.05;;;-2.96;89.06
52935;BME280;38802;50.198;19.796;2022-12-15T09:16:27;95398.11;;;-2.93;89.13
52935;BME280;38802;50.198;19.796;2022-12-15T09:18:56;95399.89;;;-2.91;88.96
52935;BME280;38802;50.198;19.796;2022-12-15T09:21:25;95404.05;;;-2.89;89.02
52935;BME280;38802;50.198;19.796;2022-12-15T09:23:55;95408.23;;;-2.84;89.09
52935;BME280;38802;50.198;19.796;2022-12-15T09:26:26;95409.30;;;-2.77;89.17
52935;BME280;38802;50.198;19.796;2022-12-15T09:28:54;95402.52;;;-2.70;89.31
52935;BME280;38802;50.198;19.796;2022-12-15T09:31:24;95404.14;;;-2.64;89.27
52935;BME280;38802;50.198;19.796;2022-12-15T09:33:56;95403.30;;;-2.60;89.12
52935;BME280;38802;50.198;19.796;2022-12-15T09:36:23;95401.17;;;-2.58;89.02
52935;BME280;38802;50.198;19.796;2022-12-15T09:38:51;95402.94;;;-2.51;89.16
52935;BME280;38802;50.198;19.796;2022-12-15T09:41:26;95407.70;;;-2.48;89.12
52935;BME280;38802;50.198;19.796;2022-12-15T09:43:57;95407.11;;;-2.50;88.87
52935;BME280;38802;50.198;19.796;2022-12-15T09:49:20;95402.05;;;-2.47;89.06
52935;BME280;38802;50.198;19.796;2022-12-15T09:51:59;95406.70;;;-2.48;88.87
52935;BME280;38802;50.198;19.796;2022-12-15T09:54:33;95412.64;;;-2.48;88.78
52935;BME280;38802;50.198;19.796;2022-12-15T09:57:04;95415.89;;;-2.48;88.79
52935;BME280;38802;50.198;19.796;2022-12-15T09:59:42;95414.91;;;-2.49;88.65
52935;BME280;38802;50.198;19.796;2022-12-15T10:07:36;95420.35;;;-2.42;88.86
52935;BME280;38802;50.198;19.796;2022-12-15T10:10:38;95431.78;;;-2.39;88.75
52935;BME280;38802;50.198;19.796;2022-12-15T10:13:22;95431.73;;;-2.38;88.81
52935;BME280;38802;50.198;19.796;2022-12-15T10:15:57;95432.02;;;-2.40;88.60
52935;BME280;38802;50.198;19.796;2022-12-15T10:18:34;95432.15;;;-2.43;88.38
52935;BME280;38802;50.198;19.796;2022-12-15T10:21:09;95427.45;;;-2.45;88.45
52935;BME280;38802;50.198;19.796;2022-12-15T10:23:39;95432.31;;;-2.43;88.55
52935;BME280;38802;50.198;19.796;2022-12-15T10:26:21;95432.02;;;-2.44;88.50
52935;BME280;38802;50.198;19.796;2022-12-15T10:35:31;95437.48;;;-2.48;88.12
52935;BME280;38802;50.198;19.796;2022-12-15T10:40:49;95432.72;;;-2.44;88.32
52935;BME280;38802;50.198;19.796;2022-12-15T10:43:33;95422.88;;;-2.41;88.52
52935;BME280;38802;50.198;19.796;2022-12-15T10:46:13;95421.80;;;-2.33;88.52
52935;BME280;38802;50.198;19.796;2022-12-15T10:48:42;95423.28;;;-2.24;87.98
52935;BME280;38802;50.198;19.796;2022-12-15T10:51:13;95421.64;;;-2.22;88.10
52935;BME280;38802;50.198;19.796;2022-12-15T10:53:46;95420.61;;;-2.22;88.54
52935;BME280;38802;50.198;19.796;2022-12-15T10:56:20;95423.18;;;-2.18;88.02
52935;BME280;38802;50.198;19.796;2022-12-15T10:58:55;95424.23;;;-2.14;88.19
52935;BME280;38802;50.198;19.796;2022-12-15T11:01:26;95424.48;;;-2.16;87.95
52935;BME280;38802;50.198;19.796;2022-12-15T11:03:54;95429.77;;;-2.17;87.98
52935;BME280;38802;50.198;19.796;2022-12-15T11:06:27;95435.96;;;-2.18;87.56
52935;BME280;38802;50.198;19.796;2022-12-15T11:08:56;95446.71;;;-2.19;87.92
52935;BME280;38802;50.198;19.796;2022-12-15T11:11:34;95456.59;;;-2.19;87.68
52935;BME280;38802;50.198;19.796;2022-12-15T11:14:27;95460.29;;;-2.22;87.64
52935;BME280;38802;50.198;19.796;2022-12-15T11:16:57;95464.33;;;-2.21;87.66
52935;BME280;38802;50.198;19.796;2022-12-15T11:21:58;95459.83;;;-2.15;87.61
52935;BME280;38802;50.198;19.796;2022-12-15T11:24:41;95461.87;;;-2.15;87.68
52935;BME280;38802;50.198;19.796;2022-12-15T11:29:53;95467.22;;;-2.09;87.75
52935;BME280;38802;50.198;19.796;2022-12-15T11:32:25;95466.84;;;-2.05;87.87
52935;BME280;38802;50.198;19.796;2022-12-15T11:34:53;95472.42;;;-1.96;88.00
52935;BME280;38802;50.198;19.796;2022-12-15T11:37:42;95473.55;;;-1.91;87.81
52935;BME280;38802;50.198;19.796;2022-12-15T11:51:55;95488.93;;;-1.85;87.57
52935;BME280;38802;50.198;19.796;2022-12-15T12:00:06;95485.54;;;-1.82;87.46
52935;BME280;38802;50.198;19.796;2022-12-15T12:08:44;95489.02;;;-1.87;87.22
52935;BME280;38802;50.198;19.796;2022-12-15T12:11:20;95497.44;;;-1.78;87.79
52935;BME280;38802;50.198;19.796;2022-12-15T12:17:01;95502.13;;;-1.76;87.12
52935;BME280;38802;50.198;19.796;2022-12-15T12:22:10;95496.86;;;-1.76;87.25
52935;BME280;38802;50.198;19.796;2022-12-15T12:25:19;95494.02;;;-1.77;87.03
52935;BME280;38802;50.198;19.796;2022-12-15T12:30:23;95502.03;;;-1.74;86.79
52935;BME280;38802;50.198;19.796;2022-12-15T12:33:03;95504.17;;;-1.72;87.05
52935;BME280;38802;50.198;19.796;2022-12-15T12:35:48;95501.01;;;-1.74;86.66
52935;BME280;38802;50.198;19.796;2022-12-15T12:38:26;95499.44;;;-1.77;87.11
52935;BME280;38802;50.198;19.796;2022-12-15T12:41:15;95508.09;;;-1.80;86.63
52935;BME280;38802;50.198;19.796;2022-12-15T12:43:54;95507.83;;;-1.85;86.92
52935;BME280;38802;50.198;19.796;2022-12-15T12:46:32;95497.63;;;-1.85;86.67
52935;BME280;38802;50.198;19.796;2022-12-15T12:51:55;95487.33;;;-1.87;86.89
52935;BME280;38802;50.198;19.796;2022-12-15T12:59:39;95482.55;;;-1.84;86.89
52935;BME280;38802;50.198;19.796;2022-12-15T13:04:42;95500.52;;;-1.81;86.89
52935;BME280;38802;50.198;19.796;2022-12-15T13:13:14;95514.83;;;-1.82;86.80
52935;BME280;38802;50.198;19.796;2022-12-15T13:18:21;95523.81;;;-1.81;87.11
52935;BME280;38802;50.198;19.796;2022-12-15T13:20:52;95524.20;;;-1.60;87.47
52935;BME280;38802;50.198;19.796;2022-12-15T13:39:03;95513.10;;;-1.52;86.62
52935;BME280;38802;50.198;19.796;2022-12-15T13:41:30;95514.67;;;-1.48;86.58
52935;BME280;38802;50.198;19.796;2022-12-15T13:43:59;95513.70;;;-1.53;86.40
52935;BME280;38802;50.198;19.796;2022-12-15T13:46:27;95521.41;;;-1.51;86.84
52935;BME280;38802;50.198;19.796;2022-12-15T13:49:18;95519.83;;;-1.50;86.61
52935;BME280;38802;50.198;19.796;2022-12-15T13:51:48;95522.58;;;-1.54;86.54
52935;BME280;38802;50.198;19.796;2022-12-15T13:54:20;95524.73;;;-1.56;85.97
52935;BME280;38802;50.198;19.796;2022-12-15T13:57:08;95523.79;;;-1.62;86.23
52935;BME280;38802;50.198;19.796;2022-12-15T14:02:28;95529.35;;;-1.64;86.65
52935;BME280;38802;50.198;19.796;2022-12-15T14:07:44;95544.56;;;-1.69;86.52
52935;BME280;38802;50.198;19.796;2022-12-15T14:12:51;95548.84;;;-1.81;86.19
52935;BME280;38802;50.198;19.796;2022-12-15T14:15:31;95558.33;;;-1.87;86.03
52935;BME280;38802;50.198;19.796;2022-12-15T14:18:00;95559.98;;;-1.87;86.20
52935;BME280;38802;50.198;19.796;2022-12-15T14:20:38;95572.52;;;-1.81;86.80
52935;BME280;38802;50.198;19.796;2022-12-15T14:23:23;95576.72;;;-1.80;86.46
52935;BME280;38802;50.198;19.796;2022-12-15T14:26:09;95587.05;;;-1.75;86.40
52935;BME280;38802;50.198;19.796;2022-12-15T14:28:45;95592.95;;;-1.69;86.44
52935;BME280;38802;50.198;19.796;2022-12-15T14:31:22;95604.68;;;-1.73;86.04
52935;BME280;38802;50.198;19.796;2022-12-15T14:34:21;95617.59;;;-1.72;85.69
52935;BME280;38802;50.198;19.796;2022-12-15T14:36:50;95625.42;;;-1.77;85.93
52935;BME280;38802;50.198;19.796;2022-12-15T14:39:32;95627.53;;;-1.74;85.90
52935;BME280;38802;50.198;19.796;2022-12-15T14:42:02;95622.88;;;-1.80;85.64
52935;BME280;38802;50.198;19.796;2022-12-15T14:44:40;95624.33;;;-1.82;85.85
52935;BME280;38802;50.198;19.796;2022-12-15T14:47:20;95637.39;;;-1.77;86.17
52935;BME280;38802;50.198;19.796;2022-12-15T14:49:48;95634.38;;;-1.75;86.03
52935;BME280;38802;50.198;19.796;2022-12-15T14:52:30;95630.94;;;-1.74;85.90
52935;BME280;38802;50.198;19.796;2022-12-15T14:55:00;95627.98;;;-1.80;85.68
52935;BME280;38802;50.198;19.796;2022-12-15T14:57:38;95634.20;;;-1.86;85.34
52935;BME280;38802;50.198;19.796;2022-12-15T15:00:32;95647.55;;;-1.96;85.19
52935;BME280;38802;50.198;19.796;2022-12-15T15:08:30;95631.20;;;-2.15;85.07
52935;BME280;38802;50.198;19.796;2022-12-15T15:11:01;95633.24;;;-2.16;85.46
52935;BME280;38802;50.198;19.796;2022-12-15T15:13:39;95635.03;;;-2.13;85.59
52935;BME280;38802;50.198;19.796;2022-12-15T15:16:14;95636.11;;;-2.20;85.11
52935;BME280;38802;50.198;19.796;2022-12-15T15:18:42;95633.00;;;-2.27;85.34
52935;BME280;38802;50.198;19.796;2022-12-15T15:21:17;95633.58;;;-2.32;85.36
52935;BME280;38802;50.198;19.796;2022-12-15T15:26:36;95636.31;;;-2.28;85.61
52935;BME280;38802;50.198;19.796;2022-12-15T15:29:03;95635.66;;;-2.29;85.64
52935;BME280;38802;50.198;19.796;2022-12-15T15:31:35;95642.50;;;-2.34;85.33
52935;BME280;38802;50.198;19.796;2022-12-15T15:34:08;95647.74;;;-2.33;85.62
52935;BME280;38802;50.198;19.796;2022-12-15T15:36:37;95643.15;;;-2.33;85.49
52935;BME280;38802;50.198;19.796;2022-12-15T15:39:14;95641.34;;;-2.39;85.41
52935;BME280;38802;50.198;19.796;2022-12-15T15:41:41;95643.38;;;-2.39;85.38